Spojeno s přeháňkami
Spojeno s přeháňkami
Spojeno s přeháňkami
Spojeno s přeháňkami
Mlha/ nízké stratusové oblaky
Mlha/ nízké stratusové oblaky
Jasno s ojedinělými nízkými oblaky
(°C)
10°
10°
10°
10°
11°
11°
12°
(°C)
10°
SV
SV
SV
SV
SV
VSV
VSV
(km/h)
6-11
6-11
6-11
6-11
6-11
6-11
5-11
(mm)
0.6
0.7
0.6
0.2
0
0
0
(%)
36
35
27
39
10
7
3

Sluneční výška

/ -45.6°
sun-icon
UV 3
06:43
17:21
Dorůstající měsíc (123°)
13:01
03:03

METAR pro San Diego (KSAN)

Čas Podmínky Teplota/
Rosný bod
Vítr Viditelnost Počasí Oblaky Tlak Změna Nezpracované
VFR 10.6°C / 8.3°C variable 0kt >10km Light Rain 0.51mm precipitation Broken Clouds 6000ft
Overcast 7500ft
1016 - KSAN 311051Z 00000KT 10SM -RA BKN060 OVC075 11/08 A3001 RMK AO2 SLP161 P0002 T01060083 $
VFR 10.6°C / 7.8°C 350º 4kt >10km Light Rain 0.51mm precipitation Broken Clouds 6000ft
Overcast 8500ft
1016 - KSAN 310951Z 35004KT 10SM -RA BKN060 OVC085 11/08 A3000 RMK AO2 SLP160 P0002 T01060078 $
VFR 12.2°C / 7.2°C 170º 6kt >10km Light Rain 0.13mm precipitation Broken Clouds 6500ft
Overcast 7500ft
1015 - KSAN 310851Z 17006KT 10SM -RA BKN065 OVC075 12/07 A2999 RMK AO2 RAB04E29B45 SLP155 P0000 60000 T01220072 51009
VFR 11.7°C / 7.2°C 200º 5kt >10km - Broken Clouds 6500ft
Broken Clouds 8000ft
1015 - KSAN 310751Z 20005KT 10SM BKN065 BKN080 12/07 A2999 RMK AO2 SLP153 T01170072 401500106
VFR 12.2°C / 7.2°C 160º 3kt >10km - Broken Clouds 6500ft
Broken Clouds 10000ft
Broken Clouds 12000ft
1015 - KSAN 310651Z 16003KT 10SM BKN065 BKN100 BKN120 12/07 A2998 RMK AO2 SLP152 T01220072
VFR 12.2°C / 6.7°C 130º 4kt >10km - Broken Clouds 7000ft
Broken Clouds 10000ft
Broken Clouds 12000ft
1014 - KSAN 310551Z 13004KT 10SM BKN070 BKN100 BKN120 12/07 A2996 RMK AO2 SLP146 60000 T01220067 10133 20117 51010
VFR 12.2°C / 7.2°C variable 0kt >10km - Broken Clouds 6000ft
Overcast 10000ft
1014 - KSAN 310451Z 00000KT 10SM BKN060 OVC100 12/07 A2995 RMK AO2 SLP143 T01220072
VFR 12.8°C / 7.2°C 80º 5kt >10km - Broken Clouds 6000ft 1013 - KSAN 310351Z 08005KT 10SM BKN060 13/07 A2994 RMK AO2 SLP139 T01280072
VFR 12.2°C / 8.3°C 40º 4kt >10km - Overcast 6000ft 1013 - KSAN 310251Z 04004KT 10SM OVC060 12/08 A2993 RMK AO2 SLP136 60000 T01220083 53001
VFR 12.2°C / 8.3°C 50º 4kt >10km - Scattered Clouds 3300ft
Broken Clouds 4300ft
Broken Clouds 6000ft
1013 - KSAN 310151Z 05004KT 10SM SCT033 BKN043 BKN060 12/08 A2993 RMK AO2 SLP134 T01220083
VFR 12.8°C / 9.4°C 60º 6kt >10km 0.13mm precipitation Scattered Clouds 1600ft
Broken Clouds 4000ft
Broken Clouds 6000ft
1013 - KSAN 310051Z 06006KT 10SM SCT016 BKN040 BKN060 13/09 A2993 RMK AO2 RAE05 SLP134 P0000 T01280094
VFR 12.8°C / 8.9°C 90º 10kt >10km Light Rain 0.25mm precipitation Scattered Clouds 1700ft
Broken Clouds 3200ft
Broken Clouds 5000ft
1013 - KSAN 302351Z 09010KT 9SM -RA SCT017 BKN032 BKN050 13/09 A2993 RMK AO2 RAE03B14 SLP135 P0001 60020 T01280089 10150 20117 55004
VFR 12.8°C / 8.9°C 100º 8kt >10km Light Rain 0.25mm precipitation Scattered Clouds 1400ft
Broken Clouds 3200ft
Overcast 5000ft
- KSAN 302337Z 10008KT 10SM -RA SCT014 BKN032 OVC050 13/09 A2993 RMK AO2 RAE03B14 P0001 T01280089
MVFR 13.3°C / 8.9°C 140º 5kt >10km Light Rain 0.25mm precipitation Scattered Clouds 1400ft
Broken Clouds 2200ft
Overcast 5000ft
- KSAN 302327Z 14005KT 10SM -RA SCT014 BKN022 OVC050 13/09 A2993 RMK AO2 RAE03B14 P0001 T01330089
MVFR 12.8°C / 8.9°C 140º 8kt >10km 0.13mm precipitation Broken Clouds 1400ft
Broken Clouds 2200ft
Overcast 6500ft
- KSAN 302305Z 14008KT 10SM BKN014 BKN022 OVC065 13/09 A2993 RMK AO2 RAE03 P0000 T01280089
MVFR 13.3°C / 10°C 120º 5kt >10km Light Rain 0.25mm precipitation Scattered Clouds 1000ft
Broken Clouds 2200ft
Overcast 6000ft
1013 - KSAN 302251Z 12005KT 7SM -RA SCT010 BKN022 OVC060 13/10 A2992 RMK AO2 SLP132 P0001 T01330100
MVFR 12.2°C / 10.6°C 350º 4kt >10km Light Rain 1.02mm precipitation Scattered Clouds 1000ft
Broken Clouds 2600ft
Broken Clouds 6500ft
1013 - KSAN 302151Z 35004KT 10SM -RA SCT010 BKN026 BKN065 12/11 A2993 RMK AO2 SLP133 P0004 T01220106
MVFR 11.7°C / 10°C 330º 5kt 4800m Light Rain Mist 0.51mm precipitation Scattered Clouds 1900ft
Broken Clouds 2600ft
Overcast 4700ft
- KSAN 302108Z 33005KT 3SM -RA BR SCT019 BKN026 OVC047 12/10 A2994 RMK AO2 P0002 T01170100
MVFR 11.7°C / 10°C 340º 5kt 4800m Rain Mist 3.05mm precipitation Scattered Clouds 2400ft
Broken Clouds 5500ft
Overcast 7000ft
1013 - KSAN 302051Z 34005KT 3SM RA BR SCT024 BKN055 OVC070 12/10 A2994 RMK AO2 SLP139 P0012 60014 T01170100 58011
VFR 13.3°C / 8.9°C 180º 5kt >10km Rain 0.51mm precipitation Scattered Clouds 3100ft
Broken Clouds 4800ft
Overcast 10000ft
1014 - KSAN 301951Z 18005KT 7SM RA SCT031 BKN048 OVC100 13/09 A2996 RMK AO2 RAE10B33 SLP144 P0002 T01330089
VFR 13.9°C / 8.3°C 150º 13kt >10km Light Rain 0.13mm precipitation Broken Clouds 3400ft
Broken Clouds 4400ft
Overcast 5500ft
1014 - KSAN 301851Z 15013KT 8SM -RA BKN034 BKN044 OVC055 14/08 A2997 RMK AO2 RAE1752B51 SLP148 P0000 T01390083
VFR 14.4°C / 7.8°C 90º 4kt >10km Light Rain 0.13mm precipitation Scattered Clouds 3100ft
Broken Clouds 4500ft
1015 - KSAN 301751Z 09004KT 10SM -RA SCT031 BKN045 14/08 A2998 RMK AO2 RAB42 SLP150 P0000 60000 T01440078 10144 20106 53010
VFR 13.3°C / 8.3°C 100º 8kt >10km - Scattered Clouds 3100ft
Broken Clouds 3900ft
Broken Clouds 4800ft
1014 - KSAN 301651Z 10008KT 10SM SCT031 BKN039 BKN048 13/08 A2997 RMK AO2 SLP147 T01330083
VFR 11.7°C / 8.3°C 90º 6kt >10km 0.13mm precipitation Few Clouds 2900ft
Broken Clouds 3300ft
Broken Clouds 4500ft
1014 - KSAN 301551Z 09006KT 10SM FEW029 BKN033 BKN045 12/08 A2995 RMK AO2 RAB05E21 SLP141 P0000 T01170083

VFR

10.6°C / 8.3°C

[Víc]
Vítr variable 0kt
Viditelnost >10km
Počasí Light Rain 0.51mm precipitation
Oblaky Broken Clouds 6000ft
Overcast 7500ft
Tlak 1016
Změna -
Nezpracované KSAN 311051Z 00000KT 10SM -RA BKN060 OVC075 11/08 A3001 RMK AO2 SLP161 P0002 T01060083 $

VFR

10.6°C / 7.8°C

[Víc]
Vítr 350º 4kt
Viditelnost >10km
Počasí Light Rain 0.51mm precipitation
Oblaky Broken Clouds 6000ft
Overcast 8500ft
Tlak 1016
Změna -
Nezpracované KSAN 310951Z 35004KT 10SM -RA BKN060 OVC085 11/08 A3000 RMK AO2 SLP160 P0002 T01060078 $

VFR

12.2°C / 7.2°C

[Víc]
Vítr 170º 6kt
Viditelnost >10km
Počasí Light Rain 0.13mm precipitation
Oblaky Broken Clouds 6500ft
Overcast 7500ft
Tlak 1015
Změna -
Nezpracované KSAN 310851Z 17006KT 10SM -RA BKN065 OVC075 12/07 A2999 RMK AO2 RAB04E29B45 SLP155 P0000 60000 T01220072 51009

VFR

11.7°C / 7.2°C

[Víc]
Vítr 200º 5kt
Viditelnost >10km
Počasí -
Oblaky Broken Clouds 6500ft
Broken Clouds 8000ft
Tlak 1015
Změna -
Nezpracované KSAN 310751Z 20005KT 10SM BKN065 BKN080 12/07 A2999 RMK AO2 SLP153 T01170072 401500106

VFR

12.2°C / 7.2°C

[Víc]
Vítr 160º 3kt
Viditelnost >10km
Počasí -
Oblaky Broken Clouds 6500ft
Broken Clouds 10000ft
Broken Clouds 12000ft
Tlak 1015
Změna -
Nezpracované KSAN 310651Z 16003KT 10SM BKN065 BKN100 BKN120 12/07 A2998 RMK AO2 SLP152 T01220072

VFR

12.2°C / 6.7°C

[Víc]
Vítr 130º 4kt
Viditelnost >10km
Počasí -
Oblaky Broken Clouds 7000ft
Broken Clouds 10000ft
Broken Clouds 12000ft
Tlak 1014
Změna -
Nezpracované KSAN 310551Z 13004KT 10SM BKN070 BKN100 BKN120 12/07 A2996 RMK AO2 SLP146 60000 T01220067 10133 20117 51010

VFR

12.2°C / 7.2°C

[Víc]
Vítr variable 0kt
Viditelnost >10km
Počasí -
Oblaky Broken Clouds 6000ft
Overcast 10000ft
Tlak 1014
Změna -
Nezpracované KSAN 310451Z 00000KT 10SM BKN060 OVC100 12/07 A2995 RMK AO2 SLP143 T01220072

VFR

12.8°C / 7.2°C

[Víc]
Vítr 80º 5kt
Viditelnost >10km
Počasí -
Oblaky Broken Clouds 6000ft
Tlak 1013
Změna -
Nezpracované KSAN 310351Z 08005KT 10SM BKN060 13/07 A2994 RMK AO2 SLP139 T01280072

VFR

12.2°C / 8.3°C

[Víc]
Vítr 40º 4kt
Viditelnost >10km
Počasí -
Oblaky Overcast 6000ft
Tlak 1013
Změna -
Nezpracované KSAN 310251Z 04004KT 10SM OVC060 12/08 A2993 RMK AO2 SLP136 60000 T01220083 53001

VFR

12.2°C / 8.3°C

[Víc]
Vítr 50º 4kt
Viditelnost >10km
Počasí -
Oblaky Scattered Clouds 3300ft
Broken Clouds 4300ft
Broken Clouds 6000ft
Tlak 1013
Změna -
Nezpracované KSAN 310151Z 05004KT 10SM SCT033 BKN043 BKN060 12/08 A2993 RMK AO2 SLP134 T01220083

VFR

12.8°C / 9.4°C

[Víc]
Vítr 60º 6kt
Viditelnost >10km
Počasí 0.13mm precipitation
Oblaky Scattered Clouds 1600ft
Broken Clouds 4000ft
Broken Clouds 6000ft
Tlak 1013
Změna -
Nezpracované KSAN 310051Z 06006KT 10SM SCT016 BKN040 BKN060 13/09 A2993 RMK AO2 RAE05 SLP134 P0000 T01280094

VFR

12.8°C / 8.9°C

[Víc]
Vítr 90º 10kt
Viditelnost >10km
Počasí Light Rain 0.25mm precipitation
Oblaky Scattered Clouds 1700ft
Broken Clouds 3200ft
Broken Clouds 5000ft
Tlak 1013
Změna -
Nezpracované KSAN 302351Z 09010KT 9SM -RA SCT017 BKN032 BKN050 13/09 A2993 RMK AO2 RAE03B14 SLP135 P0001 60020 T01280089 10150 20117 55004

VFR

12.8°C / 8.9°C

[Víc]
Vítr 100º 8kt
Viditelnost >10km
Počasí Light Rain 0.25mm precipitation
Oblaky Scattered Clouds 1400ft
Broken Clouds 3200ft
Overcast 5000ft
Tlak
Změna -
Nezpracované KSAN 302337Z 10008KT 10SM -RA SCT014 BKN032 OVC050 13/09 A2993 RMK AO2 RAE03B14 P0001 T01280089

MVFR

13.3°C / 8.9°C

[Víc]
Vítr 140º 5kt
Viditelnost >10km
Počasí Light Rain 0.25mm precipitation
Oblaky Scattered Clouds 1400ft
Broken Clouds 2200ft
Overcast 5000ft
Tlak
Změna -
Nezpracované KSAN 302327Z 14005KT 10SM -RA SCT014 BKN022 OVC050 13/09 A2993 RMK AO2 RAE03B14 P0001 T01330089

MVFR

12.8°C / 8.9°C

[Víc]
Vítr 140º 8kt
Viditelnost >10km
Počasí 0.13mm precipitation
Oblaky Broken Clouds 1400ft
Broken Clouds 2200ft
Overcast 6500ft
Tlak
Změna -
Nezpracované KSAN 302305Z 14008KT 10SM BKN014 BKN022 OVC065 13/09 A2993 RMK AO2 RAE03 P0000 T01280089

MVFR

13.3°C / 10°C

[Víc]
Vítr 120º 5kt
Viditelnost >10km
Počasí Light Rain 0.25mm precipitation
Oblaky Scattered Clouds 1000ft
Broken Clouds 2200ft
Overcast 6000ft
Tlak 1013
Změna -
Nezpracované KSAN 302251Z 12005KT 7SM -RA SCT010 BKN022 OVC060 13/10 A2992 RMK AO2 SLP132 P0001 T01330100

MVFR

12.2°C / 10.6°C

[Víc]
Vítr 350º 4kt
Viditelnost >10km
Počasí Light Rain 1.02mm precipitation
Oblaky Scattered Clouds 1000ft
Broken Clouds 2600ft
Broken Clouds 6500ft
Tlak 1013
Změna -
Nezpracované KSAN 302151Z 35004KT 10SM -RA SCT010 BKN026 BKN065 12/11 A2993 RMK AO2 SLP133 P0004 T01220106

MVFR

11.7°C / 10°C

[Víc]
Vítr 330º 5kt
Viditelnost 4800m
Počasí Light Rain Mist 0.51mm precipitation
Oblaky Scattered Clouds 1900ft
Broken Clouds 2600ft
Overcast 4700ft
Tlak
Změna -
Nezpracované KSAN 302108Z 33005KT 3SM -RA BR SCT019 BKN026 OVC047 12/10 A2994 RMK AO2 P0002 T01170100

MVFR

11.7°C / 10°C

[Víc]
Vítr 340º 5kt
Viditelnost 4800m
Počasí Rain Mist 3.05mm precipitation
Oblaky Scattered Clouds 2400ft
Broken Clouds 5500ft
Overcast 7000ft
Tlak 1013
Změna -
Nezpracované KSAN 302051Z 34005KT 3SM RA BR SCT024 BKN055 OVC070 12/10 A2994 RMK AO2 SLP139 P0012 60014 T01170100 58011

VFR

13.3°C / 8.9°C

[Víc]
Vítr 180º 5kt
Viditelnost >10km
Počasí Rain 0.51mm precipitation
Oblaky Scattered Clouds 3100ft
Broken Clouds 4800ft
Overcast 10000ft
Tlak 1014
Změna -
Nezpracované KSAN 301951Z 18005KT 7SM RA SCT031 BKN048 OVC100 13/09 A2996 RMK AO2 RAE10B33 SLP144 P0002 T01330089

VFR

13.9°C / 8.3°C

[Víc]
Vítr 150º 13kt
Viditelnost >10km
Počasí Light Rain 0.13mm precipitation
Oblaky Broken Clouds 3400ft
Broken Clouds 4400ft
Overcast 5500ft
Tlak 1014
Změna -
Nezpracované KSAN 301851Z 15013KT 8SM -RA BKN034 BKN044 OVC055 14/08 A2997 RMK AO2 RAE1752B51 SLP148 P0000 T01390083

VFR

14.4°C / 7.8°C

[Víc]
Vítr 90º 4kt
Viditelnost >10km
Počasí Light Rain 0.13mm precipitation
Oblaky Scattered Clouds 3100ft
Broken Clouds 4500ft
Tlak 1015
Změna -
Nezpracované KSAN 301751Z 09004KT 10SM -RA SCT031 BKN045 14/08 A2998 RMK AO2 RAB42 SLP150 P0000 60000 T01440078 10144 20106 53010

VFR

13.3°C / 8.3°C

[Víc]
Vítr 100º 8kt
Viditelnost >10km
Počasí -
Oblaky Scattered Clouds 3100ft
Broken Clouds 3900ft
Broken Clouds 4800ft
Tlak 1014
Změna -
Nezpracované KSAN 301651Z 10008KT 10SM SCT031 BKN039 BKN048 13/08 A2997 RMK AO2 SLP147 T01330083

VFR

11.7°C / 8.3°C

[Víc]
Vítr 90º 6kt
Viditelnost >10km
Počasí 0.13mm precipitation
Oblaky Few Clouds 2900ft
Broken Clouds 3300ft
Broken Clouds 4500ft
Tlak 1014
Změna -
Nezpracované KSAN 301551Z 09006KT 10SM FEW029 BKN033 BKN045 12/08 A2995 RMK AO2 RAB05E21 SLP141 P0000 T01170083

TAF pro San Diego (KSAN)

From till


From till Wind variable 5kt. Visibility 10km or more. Showers Rain . Scattered Clouds 2500ft. Broken Clouds 6000ft.
From till Wind variable 4kt. Visibility 10km or more. Broken Clouds 7000ft.
From till Wind 280º 8kt. Visibility 10km or more. Few Clouds 10000ft.
From till Wind variable 4kt. Visibility 10km or more. Sky Clear.

Nezpracované: KSAN 310859Z 3109/0112 VRB05KT P6SM SHRA SCT025 BKN060 FM311030 VRB04KT P6SM BKN070 FM312100 28008KT P6SM FEW100 FM010100 VRB04KT P6SM SKC

Radar a krátkodobá předpověď srážek pro San Diego

Mrholení
Slabé
Střední
Silné
Velmi silné
Kroupy

Značka lokality je umístněna na San Diego. Mrholení nebo slabé sněžení může být pro radar neviditelné. Intenzita srážek je barevně označena od světle modré po oranžovou.

Aktuální snímky ze satelitu pro San Diego, Spojené státy americké

Značka polohy je umístěna na San Diego. [Víc]

Satelitní snímek v reálném čase kombinuje viditelné světlo během dne s infračerveným zářením během noci. V noci není obraz tmavý, protože infračervené záření dokáže detekovat teplotní rozdíly. Nízká oblačnost a mlha se bohužel těžko odlišují od pozemních teplot, a proto mohou být během noci téměř neviditelné. Satelitní snímky z Meteosatu pro Evropu jsou aktualizovány v reálném čase každých 5 minut. Snímky z GOES-16/GOES-17 (Severní a Jižní Amerika) a Himawari (Asie) jsou aktualizovány) každých 10 minut.

Zpět nahoru